Lansing, Kansas
Current Conditions -  °F | °C
As of 3:53 AM on Friday 21 Nov 2014 (Local Time) from KMCI Reporting Station
Clear Clear  
Wind Chill: 14°   Ceiling: Unl
Heat Index: 24°   Visibility: 10mi
Dew Point: 16°   Wind: 10mph
Humidity: 71%   Direction: 90°E
Pressure: 30.24"   Gusts: NA
Location:  39.24°N, 94.9°W
Report Text: KMCI 210953Z 09009KT 10SM CLR M04/M09 A3024 RMK AO2 SLP248 T10441089
Loading
Personal Weather Stations






























Interactive Weather Map New forecast layout! Learn more

10-Day Weather Forecast

Advertisements
Track Severe Weather on mobile